createdAt,value
2018-08-11T00:00:04.053Z,13.06
2018-08-11T00:05:04.061Z,13.14
2018-08-11T00:10:04.050Z,13.17
2018-08-11T00:15:04.074Z,13.06
2018-08-11T00:20:04.056Z,12.97
2018-08-11T00:25:04.063Z,13.02
2018-08-11T00:30:04.070Z,13.09
2018-08-11T00:35:04.090Z,13.07
2018-08-11T00:40:04.070Z,13.07
2018-08-11T00:45:04.089Z,12.97
2018-08-11T00:50:04.084Z,12.8
2018-08-11T00:55:04.082Z,12.63
2018-08-11T01:00:04.102Z,12.52
2018-08-11T01:05:04.085Z,12.45
2018-08-11T01:10:04.099Z,12.36
2018-08-11T01:15:04.095Z,12.28
2018-08-11T01:20:04.095Z,12.19
2018-08-11T01:25:04.091Z,12.1
2018-08-11T01:30:04.104Z,12.01
2018-08-11T01:35:04.102Z,11.92
2018-08-11T01:40:04.101Z,11.83
2018-08-11T01:45:04.118Z,11.72
2018-08-11T01:50:04.111Z,11.66
2018-08-11T01:55:04.108Z,11.66
2018-08-11T02:00:04.121Z,11.57
2018-08-11T02:05:04.112Z,11.57
2018-08-11T02:10:04.120Z,11.58
2018-08-11T02:15:04.138Z,11.66
2018-08-11T02:20:04.140Z,11.64
2018-08-11T02:25:04.125Z,11.61
2018-08-11T02:30:04.151Z,11.45
2018-08-11T02:35:04.134Z,11.36
2018-08-11T02:40:04.133Z,11.47
2018-08-11T02:45:04.152Z,11.73
2018-08-11T02:50:04.138Z,12.1
2018-08-11T02:55:04.141Z,12.32
2018-08-11T03:00:04.144Z,12.57
2018-08-11T03:05:04.140Z,12.74
2018-08-11T03:10:04.150Z,12.99
2018-08-11T03:15:04.157Z,13.16
2018-08-11T03:20:04.154Z,13.4
2018-08-11T03:25:04.154Z,13.5
2018-08-11T03:30:04.165Z,13.59
2018-08-11T03:35:04.165Z,13.61
2018-08-11T03:40:04.165Z,13.64
2018-08-11T03:45:04.173Z,13.73
2018-08-11T03:50:04.167Z,13.79
2018-08-11T03:55:04.169Z,13.86
2018-08-11T04:00:04.180Z,13.79
2018-08-11T04:05:04.177Z,13.89
2018-08-11T04:10:04.180Z,14.19
2018-08-11T04:15:04.185Z,13.73
2018-08-11T04:20:04.182Z,13.01
2018-08-11T04:25:04.185Z,11.78
2018-08-11T04:30:04.184Z,11.46
2018-08-11T04:35:04.212Z,11.32
2018-08-11T04:40:04.199Z,11.18
2018-08-11T04:45:04.194Z,11.1
2018-08-11T04:50:04.207Z,11.02
2018-08-11T04:55:04.201Z,11.03
2018-08-11T05:00:04.200Z,11.05
2018-08-11T05:05:04.210Z,11.12
2018-08-11T05:10:04.206Z,11.24
2018-08-11T05:15:04.214Z,11.45
2018-08-11T05:20:04.222Z,11.61
2018-08-11T05:25:04.218Z,11.7
2018-08-11T05:30:04.218Z,11.57
2018-08-11T05:35:04.233Z,11.54
2018-08-11T05:40:04.228Z,11.55
2018-08-11T05:45:04.230Z,11.67
2018-08-11T05:50:04.248Z,11.79
2018-08-11T05:55:04.291Z,11.85
2018-08-11T06:00:04.242Z,11.97
2018-08-11T06:05:04.253Z,12.13
2018-08-11T06:10:04.242Z,12.14
2018-08-11T06:15:04.245Z,12.06
2018-08-11T06:20:04.267Z,11.89
2018-08-11T06:25:04.256Z,12.04
2018-08-11T06:30:04.262Z,12.49
2018-08-11T06:35:04.272Z,12.67
2018-08-11T06:40:04.266Z,13.07
2018-08-11T06:45:04.280Z,13.15
2018-08-11T06:50:04.283Z,13.41
2018-08-11T06:55:04.272Z,13.61
2018-08-11T07:00:04.265Z,14
2018-08-11T07:05:04.281Z,14.32
2018-08-11T07:10:04.274Z,14.43
2018-08-11T07:15:04.279Z,14.47
2018-08-11T07:20:04.287Z,14.58
2018-08-11T07:25:04.296Z,14.73
2018-08-11T07:30:04.291Z,14.94
2018-08-11T07:35:04.310Z,15.27
2018-08-11T07:40:04.306Z,16
2018-08-11T07:45:04.299Z,16.44
2018-08-11T07:50:04.317Z,17.16
2018-08-11T07:55:04.311Z,17.39
2018-08-11T08:00:04.323Z,17.34
2018-08-11T08:05:04.316Z,16.84
2018-08-11T08:10:04.312Z,16.95
2018-08-11T08:15:04.309Z,17.39
2018-08-11T08:20:04.328Z,17.85
2018-08-11T08:25:04.317Z,17.7
2018-08-11T08:30:04.321Z,17.77
2018-08-11T08:35:04.341Z,17.73
2018-08-11T08:40:04.335Z,17.41
2018-08-11T08:45:04.332Z,17.45
2018-08-11T08:50:04.338Z,18.89
2018-08-11T08:55:04.331Z,20.05
2018-08-11T09:00:04.341Z,20.63
2018-08-11T09:05:04.348Z,20.7
2018-08-11T09:10:04.342Z,20.59
2018-08-11T09:15:04.345Z,21.32
2018-08-11T09:20:04.366Z,22.18
2018-08-11T09:25:04.355Z,22.7
2018-08-11T09:30:04.357Z,23.82
2018-08-11T09:35:04.376Z,22.95
2018-08-11T09:40:04.357Z,21.46
2018-08-11T09:45:04.362Z,20.56
2018-08-11T09:50:04.375Z,19.76
2018-08-11T09:55:04.364Z,18.8
2018-08-11T10:00:04.372Z,18.77
2018-08-11T10:05:04.412Z,19.41
2018-08-11T10:10:04.374Z,20.06
2018-08-11T10:15:04.375Z,20.31
2018-08-11T10:20:04.386Z,20
2018-08-11T10:25:04.381Z,20.51
2018-08-11T10:30:04.384Z,20.7
2018-08-11T10:35:04.399Z,20.8
2018-08-11T10:40:04.435Z,20.57
2018-08-11T10:45:04.396Z,20.89
2018-08-11T10:50:03.396Z,21.03
2018-08-11T10:55:03.401Z,21.17
2018-08-11T11:00:03.407Z,20.64
2018-08-11T11:05:03.410Z,21.62
2018-08-11T11:10:03.416Z,21.2
2018-08-11T11:15:03.415Z,20.95
2018-08-11T11:20:03.414Z,20.69
2018-08-11T11:25:03.439Z,20.65
2018-08-11T11:30:03.419Z,21.8
2018-08-11T11:35:03.423Z,22.77
2018-08-11T11:40:03.447Z,23.61
2018-08-11T11:45:03.428Z,24.34
2018-08-11T11:50:03.429Z,24.25
2018-08-11T11:55:03.452Z,22.49
2018-08-11T12:00:03.605Z,21.74
2018-08-11T12:05:03.435Z,23.22
2018-08-11T12:10:03.469Z,23.9
2018-08-11T12:15:03.443Z,25.31
2018-08-11T12:20:03.451Z,23.69
2018-08-11T12:25:03.457Z,22.88
2018-08-11T12:30:03.453Z,23.98
2018-08-11T12:35:03.455Z,24.76
2018-08-11T12:40:03.467Z,25.33
2018-08-11T12:45:03.478Z,25.21
2018-08-11T12:50:03.469Z,23.14
2018-08-11T12:55:03.490Z,21.77
2018-08-11T13:00:03.470Z,21.96
2018-08-11T13:05:03.479Z,22.17
2018-08-11T13:10:03.480Z,21.99
2018-08-11T13:15:03.482Z,22.34
2018-08-11T13:20:03.482Z,22.79
2018-08-11T13:25:03.503Z,22.83
2018-08-11T13:30:03.492Z,22.98
2018-08-11T13:35:03.498Z,23.03
2018-08-11T13:40:03.497Z,22.91
2018-08-11T13:45:03.494Z,22.58
2018-08-11T13:50:03.498Z,22.09
2018-08-11T13:55:03.526Z,22.34
2018-08-11T14:00:03.501Z,22.95
2018-08-11T14:05:03.518Z,22.27
2018-08-11T14:10:03.512Z,22.77
2018-08-11T14:15:03.633Z,23.88
2018-08-11T14:20:03.534Z,24.85
2018-08-11T14:25:03.518Z,23.77
2018-08-11T14:30:03.517Z,23.82
2018-08-11T14:35:03.532Z,25.56
2018-08-11T14:40:03.523Z,24.25
2018-08-11T14:45:03.527Z,25.96
2018-08-11T14:50:03.572Z,25.52
2018-08-11T14:55:03.546Z,23.16
2018-08-11T15:00:03.535Z,21.74
2018-08-11T15:05:03.540Z,21.14
2018-08-11T15:10:03.588Z,20.87
2018-08-11T15:15:03.556Z,20.42
2018-08-11T15:20:03.546Z,19.98
2018-08-11T15:25:03.549Z,19.51
2018-08-11T15:30:03.546Z,19.32
2018-08-11T15:35:03.549Z,19.51
2018-08-11T15:40:03.565Z,20.64
2018-08-11T15:45:03.576Z,22.4
2018-08-11T15:50:03.559Z,23.18
2018-08-11T15:55:03.566Z,26.31
2018-08-11T16:00:03.568Z,27.57
2018-08-11T16:05:03.567Z,28.7
2018-08-11T16:10:03.573Z,28.9
2018-08-11T16:15:03.569Z,27.01
2018-08-11T16:20:03.574Z,24.8
2018-08-11T16:25:03.581Z,22.7
2018-08-11T16:30:03.578Z,21.25
2018-08-11T16:35:03.579Z,20.36
2018-08-11T16:40:03.595Z,20.09
2018-08-11T16:45:03.587Z,20.26
2018-08-11T16:50:03.588Z,20.48
2018-08-11T16:55:03.609Z,20.45
2018-08-11T17:00:03.593Z,20.57
2018-08-11T17:05:03.597Z,20.49
2018-08-11T17:10:03.602Z,20.34
2018-08-11T17:15:03.599Z,19.88
2018-08-11T17:20:03.601Z,19.63
2018-08-11T17:25:03.610Z,19.43
2018-08-11T17:30:03.611Z,18.99
2018-08-11T17:35:03.609Z,18.83
2018-08-11T17:40:03.622Z,18.87
2018-08-11T17:45:03.610Z,19.09
2018-08-11T17:50:03.623Z,19.17
2018-08-11T17:55:03.634Z,19.02
2018-08-11T18:00:03.625Z,18.73
2018-08-11T18:05:03.624Z,18.42
2018-08-11T18:10:03.635Z,18.12
2018-08-11T18:15:03.634Z,17.89
2018-08-11T18:20:03.639Z,17.78
2018-08-11T18:25:03.663Z,17.67
2018-08-11T18:30:03.638Z,17.5
2018-08-11T18:35:03.651Z,17.29
2018-08-11T18:40:03.664Z,17.02
2018-08-11T18:45:03.649Z,16.72
2018-08-11T18:50:03.647Z,16.49
2018-08-11T18:55:03.658Z,16.24
2018-08-11T19:00:03.655Z,16.08
2018-08-11T19:05:03.659Z,15.76
2018-08-11T19:10:03.680Z,15.42
2018-08-11T19:15:03.662Z,15.1
2018-08-11T19:20:03.669Z,14.86
2018-08-11T19:25:03.681Z,14.68
2018-08-11T19:30:03.670Z,14.57
2018-08-11T19:35:03.676Z,14.53
2018-08-11T19:40:03.685Z,14.43
2018-08-11T19:45:03.682Z,14.28
2018-08-11T19:50:03.700Z,14.04
2018-08-11T19:55:03.697Z,13.77
2018-08-11T20:00:03.685Z,13.54
2018-08-11T20:05:03.688Z,13.34
2018-08-11T20:10:03.710Z,13.2
2018-08-11T20:15:03.707Z,13.05
2018-08-11T20:20:03.698Z,12.95
2018-08-11T20:25:03.782Z,12.93
2018-08-11T20:30:03.707Z,12.9
2018-08-11T20:35:03.706Z,12.8
2018-08-11T20:40:03.717Z,12.65
2018-08-11T20:45:03.714Z,12.52
2018-08-11T20:50:03.714Z,12.37
2018-08-11T20:55:03.736Z,12.25
2018-08-11T21:00:03.723Z,12.23
2018-08-11T21:05:03.723Z,12.12
2018-08-11T21:10:03.747Z,11.86
2018-08-11T21:15:03.729Z,11.69
2018-08-11T21:20:03.732Z,11.43
2018-08-11T21:25:03.752Z,11.1
2018-08-11T21:30:03.735Z,10.99
2018-08-11T21:35:03.741Z,10.89
2018-08-11T21:40:03.754Z,10.79
2018-08-11T21:45:03.744Z,10.72
2018-08-11T21:50:03.750Z,10.74
2018-08-11T21:55:03.764Z,10.63
2018-08-11T22:00:03.752Z,10.46
2018-08-11T22:05:03.754Z,10.41
2018-08-11T22:10:03.767Z,10.35
2018-08-11T22:15:03.762Z,10.26
2018-08-11T22:20:03.768Z,10.23
2018-08-11T22:25:03.774Z,10.15
2018-08-11T22:30:03.767Z,10.14
2018-08-11T22:35:03.773Z,10.22
2018-08-11T22:40:03.786Z,10.18
2018-08-11T22:45:03.778Z,10.11
2018-08-11T22:50:03.783Z,10.07
2018-08-11T22:55:03.791Z,10.03
2018-08-11T23:00:03.786Z,9.97
2018-08-11T23:05:03.791Z,9.91
2018-08-11T23:10:03.813Z,9.81
2018-08-11T23:15:03.802Z,9.81
2018-08-11T23:20:03.801Z,9.81
2018-08-11T23:25:03.807Z,9.8
2018-08-11T23:30:03.805Z,9.79
2018-08-11T23:35:03.803Z,9.81
2018-08-11T23:40:03.813Z,9.81
2018-08-11T23:45:03.812Z,9.77
2018-08-11T23:50:03.811Z,9.77
2018-08-11T23:55:03.827Z,9.7
